Time;durP1;ratioP1;P1;durP2;ratioP2;P2;SDS_P1;SDS_P2;PMS_P1;PMS_P2;Temp;Humidity;BMP_temperature;BMP_pressure;BME280_temperature;BME280_humidity;BME280_pressure;Samples;Min_cycle;Max_cycle;Signal;HPM_P1;HPM_P2
2021/12/25 00:00:17;;;;;;;8.55;2.38;;;0.00;99.90;;;;;;4953094;28;20050;-86
2021/12/25 00:02:43;;;;;;;7.38;2.28;;;0.00;99.90;;;;;;4960478;28;20097;-86
2021/12/25 00:05:11;;;;;;;10.40;2.15;;;0.60;99.90;;;;;;4959142;28;20047;-86
2021/12/25 00:07:37;;;;;;;8.88;2.40;;;0.80;99.90;;;;;;4956568;28;20042;-86
2021/12/25 00:10:06;;;;;;;7.43;2.30;;;0.10;99.90;;;;;;4939227;28;20067;-86
2021/12/25 00:12:32;;;;;;;7.80;2.25;;;0.00;99.90;;;;;;4948075;29;20031;-86
2021/12/25 00:14:59;;;;;;;9.15;2.25;;;0.90;99.90;;;;;;4964925;28;20039;-86
2021/12/25 00:17:26;;;;;;;9.13;2.22;;;-0.10;99.90;;;;;;4963980;28;20045;-86
2021/12/25 00:19:53;;;;;;;8.20;2.33;;;-0.10;99.90;;;;;;4972213;28;20061;-86
2021/12/25 00:22:21;;;;;;;8.52;2.50;;;0.50;99.90;;;;;;4947027;28;20134;-86
2021/12/25 00:24:47;;;;;;;8.27;2.28;;;-0.10;99.90;;;;;;4943986;28;20077;-86
2021/12/25 00:34:47;;;;;;;5.10;1.80;;;-0.20;99.90;;;;;;4950699;28;20478;-86
2021/12/25 00:37:13;;;;;;;7.05;1.95;;;0.40;99.90;;;;;;4960257;28;20406;-86
2021/12/25 00:39:39;;;;;;;5.97;2.05;;;-0.40;99.90;;;;;;4940344;28;20047;-86
2021/12/25 00:42:06;;;;;;;5.15;1.40;;;-0.40;99.90;;;;;;4939665;28;20049;-86
2021/12/25 00:44:33;;;;;;;5.47;1.38;;;-0.30;99.90;;;;;;4951646;28;20039;-86
2021/12/25 00:46:59;;;;;;;7.47;1.40;;;-0.40;99.90;;;;;;4943080;28;20079;-86
2021/12/25 00:49:26;;;;;;;5.43;1.10;;;-0.20;99.90;;;;;;4965528;28;20034;-86
2021/12/25 00:51:52;;;;;;;5.88;1.60;;;-0.40;99.90;;;;;;4940688;28;20047;-86
2021/12/25 00:54:19;;;;;;;8.60;1.67;;;-0.50;99.90;;;;;;4966048;28;20049;-86
2021/12/25 00:56:44;;;;;;;5.28;1.58;;;0.60;99.90;;;;;;4945024;28;20051;-86
2021/12/25 00:59:10;;;;;;;6.78;1.70;;;-0.10;99.90;;;;;;4948975;28;20106;-86
2021/12/25 01:01:37;;;;;;;6.25;1.67;;;-0.80;99.90;;;;;;4941289;28;20502;-86
2021/12/25 01:04:03;;;;;;;6.50;1.50;;;-0.90;99.90;;;;;;4932411;29;20043;-86
2021/12/25 01:06:29;;;;;;;6.35;1.50;;;-0.80;99.90;;;;;;4972352;28;20404;-86
2021/12/25 01:08:55;;;;;;;7.13;1.52;;;-0.50;99.90;;;;;;4952151;28;20048;-86
2021/12/25 01:11:24;;;;;;;4.22;1.42;;;-0.90;99.90;;;;;;4956365;28;20038;-86
2021/12/25 01:13:57;;;;;;;7.50;1.60;;;0.40;99.90;;;;;;4935355;28;20043;-86
2021/12/25 01:21:46;;;;;;;7.20;1.63;;;-0.90;99.90;;;;;;4934934;28;20042;-85
2021/12/25 01:29:33;;;;;;;4.82;1.55;;;-0.90;99.90;;;;;;4943721;28;20058;-85
2021/12/25 01:35:18;;;;;;;4.85;1.60;;;-1.10;99.90;;;;;;4962880;28;20466;-85
2021/12/25 01:48:45;;;;;;;3.30;1.30;;;-0.40;99.90;;;;;;4965415;28;20038;-85
2021/12/25 01:51:12;;;;;;;5.90;1.40;;;-1.30;99.90;;;;;;4963619;28;20043;-85
2021/12/25 01:53:38;;;;;;;6.00;1.58;;;-1.40;99.90;;;;;;4932371;29;20046;-85
2021/12/25 01:56:04;;;;;;;6.70;1.67;;;-1.40;99.90;;;;;;4979334;28;20039;-85
2021/12/25 01:58:32;;;;;;;5.38;1.40;;;-1.40;99.90;;;;;;4957011;28;20093;-85
2021/12/25 02:00:58;;;;;;;5.72;1.40;;;-0.40;99.90;;;;;;4956045;28;20043;-85
2021/12/25 02:03:27;;;;;;;4.20;1.38;;;-1.10;99.90;;;;;;4961086;28;20043;-85
2021/12/25 02:05:54;;;;;;;6.00;1.55;;;-1.40;99.90;;;;;;4948393;28;20043;-85
2021/12/25 02:08:20;;;;;;;3.63;1.17;;;-1.50;99.90;;;;;;4946772;28;20089;-85
2021/12/25 02:10:46;;;;;;;4.53;1.40;;;-0.40;99.90;;;;;;4962176;28;20117;-85
2021/12/25 02:13:13;;;;;;;4.25;1.20;;;-1.30;99.90;;;;;;4930834;28;20079;-85
2021/12/25 02:15:45;;;;;;;6.40;1.77;;;-1.50;99.90;;;;;;4937256;28;20038;-85
2021/12/25 02:18:16;;;;;;;3.50;0.95;;;-1.50;99.90;;;;;;4957225;28;20540;-85
2021/12/25 02:20:56;;;;;;;6.83;1.60;;;-0.60;99.90;;;;;;4936902;28;20386;-85
2021/12/25 02:23:23;;;;;;;6.13;1.52;;;-1.60;99.90;;;;;;4953128;28;20762;-85
2021/12/25 02:25:55;;;;;;;4.28;1.10;;;-1.60;99.90;;;;;;4944358;28;20136;-85
2021/12/25 02:28:23;;;;;;;7.13;1.55;;;-1.20;99.90;;;;;;4949178;28;20384;-85
2021/12/25 02:30:52;;;;;;;6.78;1.60;;;-1.60;99.90;;;;;;4931632;28;20483;-85
2021/12/25 02:33:18;;;;;;;4.80;1.30;;;-1.50;99.90;;;;;;4951657;28;20113;-85
2021/12/25 02:35:44;;;;;;;4.75;1.30;;;-1.60;99.90;;;;;;4935555;28;20046;-85
2021/12/25 02:38:11;;;;;;;6.32;1.50;;;-1.70;99.90;;;;;;4948405;28;20078;-85
2021/12/25 02:40:37;;;;;;;6.90;1.42;;;-1.00;99.90;;;;;;4948805;28;20053;-85
2021/12/25 02:43:03;;;;;;;5.57;1.45;;;-1.40;99.90;;;;;;4954936;28;20129;-85
2021/12/25 02:45:29;;;;;;;7.70;1.42;;;-1.30;99.90;;;;;;4930450;28;20043;-85
2021/12/25 02:47:56;;;;;;;6.57;1.45;;;-1.90;99.90;;;;;;4970181;28;20097;-85
2021/12/25 02:50:29;;;;;;;5.15;1.40;;;-1.90;99.90;;;;;;4954313;28;20044;-85
2021/12/25 02:52:58;;;;;;;3.95;1.20;;;-1.90;99.90;;;;;;4954195;28;20514;-85
2021/12/25 02:55:25;;;;;;;5.57;1.23;;;-1.90;99.90;;;;;;4953835;28;20038;-85
2021/12/25 02:57:52;;;;;;;4.72;1.50;;;-2.00;99.90;;;;;;4953818;28;20039;-85
2021/12/25 03:00:29;;;;;;;4.63;1.38;;;-1.40;99.90;;;;;;4958114;28;20043;-85
2021/12/25 03:02:56;;;;;;;5.63;1.17;;;-2.10;99.90;;;;;;4950751;28;20043;-85
2021/12/25 03:05:22;;;;;;;4.40;1.30;;;-2.00;99.90;;;;;;4939793;28;20042;-85
2021/12/25 03:07:47;;;;;;;2.67;0.95;;;-2.10;99.90;;;;;;4968549;28;19941;-85
2021/12/25 03:10:15;;;;;;;3.92;1.20;;;-2.00;99.90;;;;;;4959496;28;20066;-85
2021/12/25 03:12:54;;;;;;;5.35;1.30;;;-1.70;99.90;;;;;;4948553;28;20035;-85
2021/12/25 03:15:41;;;;;;;4.50;1.20;;;-1.40;99.90;;;;;;4933854;28;20487;-85
2021/12/25 03:18:07;;;;;;;6.15;1.13;;;-2.00;99.90;;;;;;4938430;28;20054;-85
2021/12/25 03:20:34;;;;;;;5.55;1.50;;;-2.10;99.90;;;;;;4971600;28;20042;-85
2021/12/25 03:23:00;;;;;;;3.67;1.30;;;-1.90;99.90;;;;;;4942921;28;20035;-85
2021/12/25 03:25:26;;;;;;;3.75;1.15;;;-2.30;99.90;;;;;;4951537;28;20038;-85
2021/12/25 03:27:52;;;;;;;3.45;1.20;;;-2.30;99.90;;;;;;4932020;29;20058;-85
2021/12/25 03:30:21;;;;;;;3.88;1.20;;;-1.40;99.90;;;;;;4945256;29;20050;-85
2021/12/25 03:32:47;;;;;;;4.13;1.08;;;-2.20;99.90;;;;;;4943485;29;20043;-85
2021/12/25 03:35:13;;;;;;;3.47;1.10;;;-2.30;99.90;;;;;;4946548;29;20407;-85
2021/12/25 03:37:39;;;;;;;3.72;1.10;;;-2.30;99.90;;;;;;4949105;29;20055;-85
2021/12/25 03:40:06;;;;;;;4.10;1.10;;;-2.30;99.90;;;;;;4945159;29;20475;-85
2021/12/25 03:42:32;;;;;;;2.95;1.17;;;-2.30;99.90;;;;;;4944646;29;20039;-85
2021/12/25 03:44:58;;;;;;;2.97;1.00;;;-2.40;99.90;;;;;;4947171;29;20459;-85
2021/12/25 03:47:33;;;;;;;3.58;1.13;;;-2.50;99.90;;;;;;4941861;29;20040;-85
2021/12/25 03:58:26;;;;;;;2.20;0.90;;;-2.10;99.90;;;;;;4931392;29;20051;-85
2021/12/25 04:00:58;;;;;;;2.40;0.98;;;-2.10;99.90;;;;;;4961003;29;20035;-85
2021/12/25 04:03:42;;;;;;;3.72;1.10;;;-2.60;99.90;;;;;;4947879;28;20103;-85
2021/12/25 04:06:10;;;;;;;2.75;0.90;;;-2.60;99.90;;;;;;4950855;28;20039;-85
2021/12/25 04:08:43;;;;;;;2.40;1.00;;;-1.90;99.90;;;;;;4948194;28;20138;-85
2021/12/25 04:11:14;;;;;;;3.78;1.15;;;-2.60;99.90;;;;;;4955134;29;20094;-86
2021/12/25 04:13:40;;;;;;;3.20;0.90;;;-1.70;99.90;;;;;;4948133;28;20035;-86
2021/12/25 04:16:06;;;;;;;5.07;1.10;;;-2.70;99.90;;;;;;4927420;29;20043;-85
2021/12/25 04:18:32;;;;;;;3.60;1.10;;;-2.80;99.90;;;;;;4950587;29;20515;-85
2021/12/25 04:20:57;;;;;;;4.45;1.02;;;-1.80;99.90;;;;;;4946162;29;20529;-85
2021/12/25 04:23:27;;;;;;;3.28;1.02;;;-1.70;99.90;;;;;;4946212;29;20111;-85
2021/12/25 04:25:54;;;;;;;3.25;1.02;;;-1.80;99.90;;;;;;4939516;29;20048;-85
2021/12/25 04:28:35;;;;;;;4.03;1.10;;;-2.80;99.90;;;;;;4973769;28;20439;-85
2021/12/25 04:31:22;;;;;;;5.00;1.27;;;-2.40;99.90;;;;;;4954968;28;20071;-85
2021/12/25 05:03:58;;;;;;;3.90;1.10;;;-2.90;99.90;;;;;;4938007;29;20074;-86
2021/12/25 05:06:24;;;;;;;3.40;1.20;;;-1.90;99.90;;;;;;4960748;28;20047;-86
2021/12/25 05:08:51;;;;;;;3.28;1.00;;;-2.10;99.90;;;;;;4943727;28;20053;-86
2021/12/25 05:11:17;;;;;;;3.22;0.90;;;-3.00;99.90;;;;;;4954160;28;20043;-86
2021/12/25 05:13:43;;;;;;;2.08;0.90;;;-2.20;99.90;;;;;;4946235;28;20039;-86
2021/12/25 05:16:09;;;;;;;3.97;1.15;;;-2.90;99.90;;;;;;4960290;29;20047;-86
2021/12/25 05:18:36;;;;;;;2.13;1.10;;;-2.30;99.90;;;;;;4956459;28;20057;-86
2021/12/25 05:21:01;;;;;;;2.67;1.00;;;-2.90;99.90;;;;;;4950678;28;20048;-86
2021/12/25 05:23:27;;;;;;;4.50;1.20;;;-2.90;99.90;;;;;;4967318;28;20160;-86
2021/12/25 05:25:53;;;;;;;5.07;1.30;;;-1.70;99.90;;;;;;4950731;28;20046;-86
2021/12/25 05:28:25;;;;;;;4.32;1.10;;;-2.70;99.90;;;;;;4946496;28;20058;-86
2021/12/25 05:30:53;;;;;;;3.50;1.10;;;-2.00;99.90;;;;;;4953003;28;20043;-86
2021/12/25 05:33:20;;;;;;;2.45;1.00;;;-3.00;99.90;;;;;;4949428;28;20113;-86
2021/12/25 05:35:46;;;;;;;4.30;1.10;;;-2.20;99.90;;;;;;4958777;29;20036;-86
2021/12/25 05:38:15;;;;;;;3.13;0.98;;;-3.10;99.90;;;;;;4965138;28;20035;-86
2021/12/25 05:40:43;;;;;;;3.13;1.02;;;-3.10;99.90;;;;;;4952403;29;20059;-86
2021/12/25 05:43:09;;;;;;;3.67;1.10;;;-1.90;99.90;;;;;;4961223;28;20062;-86
2021/12/25 05:45:35;;;;;;;4.30;1.20;;;-1.90;99.90;;;;;;4953980;28;20039;-86
2021/12/25 05:48:00;;;;;;;2.45;0.90;;;-3.10;99.90;;;;;;4970992;28;20132;-86
2021/12/25 05:50:26;;;;;;;4.03;1.10;;;-1.70;99.90;;;;;;4940863;29;20043;-86
2021/12/25 05:52:54;;;;;;;4.22;1.10;;;-2.20;99.90;;;;;;4936412;29;20508;-86
2021/12/25 05:55:19;;;;;;;3.47;1.10;;;-2.70;99.90;;;;;;4946115;28;20167;-87
2021/12/25 05:57:45;;;;;;;3.17;1.00;;;-2.80;99.90;;;;;;4954178;29;20115;-87
2021/12/25 06:00:11;;;;;;;3.30;1.00;;;-3.20;99.90;;;;;;4949009;28;20051;-87
2021/12/25 06:02:37;;;;;;;3.38;1.10;;;-3.20;99.90;;;;;;4941772;29;20043;-87
2021/12/25 06:05:06;;;;;;;3.38;0.90;;;-3.10;99.90;;;;;;4948689;28;20139;-86
2021/12/25 06:07:34;;;;;;;3.05;0.93;;;-3.10;99.90;;;;;;4954281;28;20050;-86
2021/12/25 06:10:00;;;;;;;4.43;0.93;;;-3.20;99.90;;;;;;4959571;28;20394;-86
2021/12/25 06:12:27;;;;;;;2.05;0.95;;;-3.20;99.90;;;;;;4956244;28;20039;-86
2021/12/25 06:14:54;;;;;;;4.38;1.08;;;-3.20;99.90;;;;;;4958075;28;20039;-86
2021/12/25 06:17:20;;;;;;;3.03;0.90;;;-3.20;99.90;;;;;;4957566;29;20039;-86
2021/12/25 06:19:46;;;;;;;3.58;1.00;;;-2.20;99.90;;;;;;4962317;28;20126;-86
2021/12/25 06:22:12;;;;;;;2.65;1.00;;;-2.40;99.90;;;;;;4937647;28;20463;-86
2021/12/25 06:24:40;;;;;;;2.42;1.00;;;-2.40;99.90;;;;;;4944497;29;20031;-86
2021/12/25 06:27:06;;;;;;;3.15;0.90;;;-3.40;99.90;;;;;;4955710;29;20055;-86
2021/12/25 06:29:32;;;;;;;3.53;0.90;;;-3.40;99.90;;;;;;4999415;28;20473;-86
2021/12/25 06:31:58;;;;;;;2.00;0.90;;;-3.40;99.90;;;;;;4959161;28;20137;-86
2021/12/25 06:34:24;;;;;;;3.10;0.90;;;-3.40;99.90;;;;;;4976120;28;20076;-86
2021/12/25 06:36:50;;;;;;;1.75;0.80;;;-3.40;99.90;;;;;;4979550;28;20051;-86
2021/12/25 06:39:16;;;;;;;2.60;0.90;;;-2.50;99.90;;;;;;4982110;28;20177;-86
2021/12/25 06:41:45;;;;;;;3.38;0.85;;;-2.30;99.90;;;;;;4946495;29;20526;-86
2021/12/25 06:44:11;;;;;;;3.25;0.90;;;-3.10;99.90;;;;;;4994071;28;20046;-86
2021/12/25 06:46:37;;;;;;;4.28;1.02;;;-2.80;99.90;;;;;;4987163;28;20122;-86
2021/12/25 06:49:03;;;;;;;3.15;0.90;;;-3.10;99.90;;;;;;4958772;28;21004;-86
2021/12/25 06:51:29;;;;;;;2.10;0.90;;;-3.50;99.90;;;;;;4965739;28;20094;-86
2021/12/25 06:53:54;;;;;;;1.58;0.75;;;-3.40;99.90;;;;;;4953301;28;20042;-86
2021/12/25 06:56:21;;;;;;;4.65;0.80;;;-2.20;99.90;;;;;;4950265;28;20494;-86
2021/12/25 06:58:47;;;;;;;2.63;0.90;;;-3.40;99.90;;;;;;4961799;28;20050;-86
2021/12/25 07:01:13;;;;;;;2.50;0.80;;;-3.40;99.90;;;;;;4954238;29;20107;-86
2021/12/25 07:03:38;;;;;;;3.88;1.05;;;-3.40;99.90;;;;;;4969566;28;20097;-86
2021/12/25 07:06:04;;;;;;;2.80;1.10;;;-3.40;99.90;;;;;;4977243;28;20450;-86
2021/12/25 07:08:30;;;;;;;2.63;0.80;;;-3.00;99.90;;;;;;4945905;28;20037;-86
2021/12/25 07:10:56;;;;;;;4.70;0.90;;;-2.20;99.90;;;;;;4955582;28;20050;-86
2021/12/25 07:13:22;;;;;;;2.30;0.88;;;-3.50;99.90;;;;;;4973856;28;20129;-86
2021/12/25 07:15:47;;;;;;;4.35;0.90;;;-3.50;99.90;;;;;;4947814;28;20050;-86
2021/12/25 07:18:14;;;;;;;3.65;0.98;;;-3.60;99.90;;;;;;4947135;28;20138;-86
2021/12/25 07:20:40;;;;;;;2.72;0.90;;;-3.60;99.90;;;;;;4967393;28;20038;-86
2021/12/25 07:23:06;;;;;;;2.28;0.80;;;-3.60;99.90;;;;;;4967507;28;20046;-86
2021/12/25 07:25:32;;;;;;;3.50;1.00;;;-2.80;99.90;;;;;;4941795;28;20477;-86
2021/12/25 07:27:58;;;;;;;2.30;0.90;;;-3.60;99.90;;;;;;4949433;28;20051;-86
2021/12/25 07:30:24;;;;;;;2.67;0.90;;;-3.00;99.90;;;;;;4954060;28;20039;-86
2021/12/25 07:32:49;;;;;;;1.83;0.85;;;-3.60;99.90;;;;;;4948505;28;20074;-86
2021/12/25 07:35:15;;;;;;;3.75;0.90;;;-3.60;99.90;;;;;;4960153;28;20506;-86
2021/12/25 07:37:41;;;;;;;2.40;0.90;;;-3.60;99.90;;;;;;4972314;28;20042;-85
2021/12/25 07:40:09;;;;;;;1.98;0.75;;;-2.20;99.90;;;;;;4958883;28;20051;-86
2021/12/25 07:42:35;;;;;;;2.40;0.95;;;-3.60;99.90;;;;;;4958668;28;20098;-86
2021/12/25 07:45:06;;;;;;;3.05;1.00;;;-3.50;99.90;;;;;;4969276;28;20122;-86
2021/12/25 07:47:34;;;;;;;1.90;0.80;;;-3.60;99.90;;;;;;4952111;28;20046;-86
2021/12/25 07:50:00;;;;;;;2.80;0.90;;;-3.60;99.90;;;;;;4947368;28;20047;-86
2021/12/25 07:52:27;;;;;;;3.03;0.93;;;-3.60;99.90;;;;;;4942990;28;20379;-85
2021/12/25 07:54:53;;;;;;;3.08;1.05;;;-3.60;99.90;;;;;;4958699;28;20420;-84
2021/12/25 07:57:19;;;;;;;4.38;0.90;;;-3.60;99.90;;;;;;4963343;28;20386;-85
2021/12/25 07:59:45;;;;;;;2.38;0.90;;;-3.60;99.90;;;;;;4959377;28;20398;-85
2021/12/25 08:02:11;;;;;;;2.90;0.95;;;-3.60;99.90;;;;;;4926304;28;20039;-85
2021/12/25 08:04:37;;;;;;;3.88;1.20;;;-3.60;99.90;;;;;;4943468;28;20042;-84
2021/12/25 08:07:03;;;;;;;4.28;1.05;;;-3.60;99.90;;;;;;4959803;28;20047;-85
2021/12/25 08:09:30;;;;;;;4.60;1.10;;;-3.70;99.90;;;;;;4949605;28;20483;-85
2021/12/25 08:12:00;;;;;;;4.35;1.10;;;-3.60;99.90;;;;;;4942834;28;20039;-85
2021/12/25 08:14:27;;;;;;;2.92;0.90;;;-3.50;99.90;;;;;;4955522;28;20185;-85
2021/12/25 08:16:58;;;;;;;3.10;1.00;;;-2.30;99.90;;;;;;4946846;28;20054;-87
2021/12/25 08:19:24;;;;;;;4.38;1.10;;;-3.50;99.90;;;;;;4962641;28;20096;-87
2021/12/25 08:21:51;;;;;;;4.40;1.23;;;-3.60;99.90;;;;;;4939497;28;20133;-88
2021/12/25 08:24:18;;;;;;;3.92;0.93;;;-2.30;99.90;;;;;;4930506;28;20050;-88
2021/12/25 08:26:45;;;;;;;3.25;1.10;;;-3.50;99.90;;;;;;4950793;28;20475;-87
2021/12/25 08:29:11;;;;;;;3.17;1.00;;;-2.70;99.90;;;;;;4939405;28;20040;-89
2021/12/25 08:31:37;;;;;;;1.92;0.90;;;-3.50;99.90;;;;;;4950693;28;20039;-89
2021/12/25 08:34:04;;;;;;;3.55;0.98;;;-3.40;99.90;;;;;;4962518;28;20482;-88
2021/12/25 08:36:30;;;;;;;2.05;0.90;;;-2.50;99.90;;;;;;4919433;28;20050;-88
2021/12/25 08:38:55;;;;;;;3.22;0.90;;;-3.30;99.90;;;;;;4923068;28;20126;-88
2021/12/25 08:41:26;;;;;;;2.90;0.95;;;-2.30;99.90;;;;;;4926891;28;20035;-88
2021/12/25 08:43:57;;;;;;;2.63;0.95;;;-2.90;99.90;;;;;;4941050;28;20043;-89
2021/12/25 08:46:42;;;;;;;3.25;1.00;;;-3.20;99.90;;;;;;4945959;28;20031;-89
2021/12/25 08:49:14;;;;;;;2.60;1.00;;;-2.00;99.90;;;;;;4953933;28;20130;-89
2021/12/25 08:51:41;;;;;;;3.00;0.80;;;-3.10;99.90;;;;;;4929660;28;20058;-88
2021/12/25 08:54:07;;;;;;;5.05;1.23;;;-3.10;99.90;;;;;;4957749;28;20034;-89
2021/12/25 08:56:32;;;;;;;4.18;1.00;;;-3.00;99.90;;;;;;4949232;28;20043;-88
2021/12/25 08:59:00;;;;;;;2.72;0.90;;;-3.10;99.90;;;;;;4923831;28;20050;-89
2021/12/25 09:01:26;;;;;;;3.10;0.90;;;-2.90;99.90;;;;;;4926039;28;20527;-89
2021/12/25 09:03:52;;;;;;;1.70;0.80;;;-2.90;99.90;;;;;;4940098;28;20090;-87
2021/12/25 09:06:18;;;;;;;3.30;1.10;;;-2.80;99.90;;;;;;4961298;28;20062;-89
2021/12/25 09:08:43;;;;;;;2.85;0.98;;;-2.80;99.90;;;;;;4928118;28;20089;-88
2021/12/25 09:11:09;;;;;;;3.75;1.02;;;-2.30;99.90;;;;;;4938793;28;20035;-88
2021/12/25 09:13:35;;;;;;;3.65;1.00;;;-1.50;99.90;;;;;;4959245;28;20110;-88
2021/12/25 09:16:01;;;;;;;3.28;0.90;;;-2.30;99.90;;;;;;4944631;28;20046;-89
2021/12/25 09:18:26;;;;;;;3.35;1.20;;;-1.70;99.90;;;;;;4919754;28;20094;-88
2021/12/25 09:20:52;;;;;;;0.63;0.60;;;-2.40;99.90;;;;;;4932618;28;20046;-86
2021/12/25 09:23:18;;;;;;;4.65;1.10;;;-2.20;99.90;;;;;;4949682;28;20476;-87
2021/12/25 09:25:44;;;;;;;4.53;1.02;;;-1.80;99.90;;;;;;4930056;28;20050;-88
2021/12/25 09:28:09;;;;;;;1.48;0.80;;;-1.30;99.90;;;;;;4947410;28;20043;-87
2021/12/25 09:30:36;;;;;;;1.65;1.00;;;-2.20;99.90;;;;;;4922681;28;20094;-87
2021/12/25 09:33:03;;;;;;;2.25;0.90;;;-2.10;99.90;;;;;;4937576;28;20034;-88
2021/12/25 09:35:29;;;;;;;3.55;1.10;;;-1.20;99.90;;;;;;4947088;28;20075;-89
2021/12/25 09:37:55;;;;;;;3.05;0.90;;;-2.10;99.90;;;;;;4972334;28;20047;-89
2021/12/25 09:40:21;;;;;;;1.55;0.70;;;-1.60;99.90;;;;;;4941764;28;20557;-87
2021/12/25 09:42:47;;;;;;;2.83;1.00;;;-2.10;99.90;;;;;;4925374;28;20032;-85
2021/12/25 09:45:14;;;;;;;3.42;1.08;;;-1.90;99.90;;;;;;4935402;28;20037;-87
2021/12/25 09:47:40;;;;;;;4.57;1.10;;;-1.90;99.90;;;;;;4926788;28;20078;-85
2021/12/25 09:50:08;;;;;;;3.83;1.13;;;-1.90;99.90;;;;;;4960426;28;20546;-85
2021/12/25 09:52:34;;;;;;;3.33;1.10;;;-1.20;99.90;;;;;;4940902;28;20042;-88
2021/12/25 09:55:00;;;;;;;1.23;0.70;;;-1.00;99.90;;;;;;4940969;28;20047;-88
2021/12/25 09:57:26;;;;;;;4.90;1.20;;;-1.00;99.90;;;;;;4929632;28;20077;-88
2021/12/25 09:59:55;;;;;;;1.88;0.80;;;-1.80;99.90;;;;;;4949042;28;20077;-87
2021/12/25 10:02:21;;;;;;;1.13;0.77;;;-1.60;99.90;;;;;;4943258;28;20128;-86
2021/12/25 10:04:54;;;;;;;3.47;1.08;;;-1.60;99.90;;;;;;4958851;28;20130;-87
2021/12/25 10:07:29;;;;;;;4.05;1.00;;;-0.90;99.90;;;;;;4949515;28;20126;-87
2021/12/25 10:10:03;;;;;;;2.75;0.90;;;-1.60;99.90;;;;;;4925223;28;20041;-86
2021/12/25 10:12:39;;;;;;;3.50;1.20;;;-1.50;99.90;;;;;;4938979;28;20054;-86
2021/12/25 10:15:08;;;;;;;3.08;1.00;;;-1.40;99.90;;;;;;4940672;28;20039;-85
2021/12/25 10:17:43;;;;;;;4.13;1.20;;;-1.40;99.90;;;;;;4940750;28;20039;-86
2021/12/25 10:20:13;;;;;;;3.65;0.90;;;-0.40;99.90;;;;;;4954773;28;20105;-86
2021/12/25 10:23:09;;;;;;;3.90;1.00;;;-1.50;99.90;;;;;;4946052;28;20050;-85
2021/12/25 10:25:53;;;;;;;4.43;1.08;;;-1.30;99.90;;;;;;4958631;28;20101;-87
2021/12/25 10:28:40;;;;;;;2.53;0.95;;;-1.30;99.90;;;;;;4951048;29;20098;-86
2021/12/25 10:31:13;;;;;;;4.03;0.90;;;-0.80;99.90;;;;;;4938761;29;20043;-86
2021/12/25 10:33:53;;;;;;;4.20;1.00;;;-1.20;99.90;;;;;;4950526;29;20039;-86
2021/12/25 10:36:33;;;;;;;4.80;1.00;;;-1.20;99.90;;;;;;4952423;29;20573;-86
2021/12/25 10:39:07;;;;;;;3.00;0.90;;;-1.10;99.90;;;;;;4937690;29;20039;-86
2021/12/25 10:41:36;;;;;;;4.07;0.90;;;-1.00;99.90;;;;;;4936492;29;20101;-86
2021/12/25 10:44:15;;;;;;;2.50;1.00;;;-1.10;99.90;;;;;;4938360;29;20074;-84
2021/12/25 10:46:52;;;;;;;2.50;0.82;;;-1.30;99.90;;;;;;4953929;28;20079;-84
2021/12/25 10:49:19;;;;;;;3.50;0.90;;;-1.10;98.70;;;;;;4944669;28;20043;-85
2021/12/25 10:51:46;;;;;;;0.75;0.65;;;-1.20;99.90;;;;;;4931926;29;20031;-85
2021/12/25 10:54:14;;;;;;;2.63;0.90;;;-0.20;99.90;;;;;;4965041;28;20067;-85
2021/12/25 10:56:42;;;;;;;3.03;1.10;;;-1.00;99.90;;;;;;4916410;29;20039;-86
2021/12/25 10:59:11;;;;;;;3.25;0.95;;;-1.10;99.90;;;;;;4932690;29;20043;-84
2021/12/25 11:01:47;;;;;;;3.63;1.00;;;-0.80;99.40;;;;;;4944036;28;20133;-85
2021/12/25 11:04:31;;;;;;;2.42;0.90;;;-1.00;99.70;;;;;;4961451;28;20050;-85
2021/12/25 11:06:59;;;;;;;4.80;1.10;;;-1.00;99.40;;;;;;4954330;29;20070;-85
2021/12/25 11:09:26;;;;;;;4.53;1.10;;;-1.00;99.40;;;;;;4935981;29;20040;-85
2021/12/25 11:12:19;;;;;;;3.45;0.90;;;-1.00;98.40;;;;;;4918656;29;20047;-85
2021/12/25 11:14:45;;;;;;;1.30;0.77;;;-1.10;99.90;;;;;;4955061;29;20031;-85
2021/12/25 11:17:26;;;;;;;0.85;0.70;;;-0.30;97.90;;;;;;4951475;29;20101;-85
2021/12/25 11:20:00;;;;;;;2.55;0.90;;;0.00;96.50;;;;;;4954788;28;20043;-86
2021/12/25 11:22:53;;;;;;;6.05;1.10;;;-0.70;99.80;;;;;;4948272;29;20039;-85
2021/12/25 11:25:21;;;;;;;4.22;1.10;;;-1.00;99.60;;;;;;4957088;29;20043;-85
2021/12/25 11:27:49;;;;;;;3.53;1.10;;;-0.70;99.90;;;;;;4951951;28;20121;-87
2021/12/25 11:30:16;;;;;;;3.63;0.98;;;0.20;99.90;;;;;;4932534;28;20058;-83
2021/12/25 11:32:41;;;;;;;4.20;1.10;;;-1.00;99.20;;;;;;4922672;29;20166;-83
2021/12/25 11:35:09;;;;;;;4.28;1.23;;;-1.10;99.90;;;;;;4962119;28;20141;-82
2021/12/25 11:37:35;;;;;;;2.88;1.00;;;-1.00;99.90;;;;;;4965413;28;20046;-83
2021/12/25 11:40:01;;;;;;;4.90;1.15;;;-0.60;99.70;;;;;;4930310;28;20131;-83
2021/12/25 11:42:28;;;;;;;3.88;1.10;;;-0.80;99.50;;;;;;4946954;28;20125;-82
2021/12/25 11:44:55;;;;;;;5.40;1.40;;;-1.00;98.30;;;;;;4941529;28;20050;-83
2021/12/25 11:47:38;;;;;;;3.88;1.00;;;-0.90;99.00;;;;;;4943305;28;20538;-83
2021/12/25 11:50:24;;;;;;;3.85;1.00;;;-0.60;98.90;;;;;;4963021;28;20062;-84
2021/12/25 11:53:15;;;;;;;3.95;1.23;;;-1.00;99.90;;;;;;4960016;28;20051;-84
2021/12/25 11:58:36;;;;;;;3.50;1.10;;;-1.00;99.90;;;;;;4969332;28;20054;-83
2021/12/25 12:01:20;;;;;;;3.15;1.02;;;-1.10;99.90;;;;;;4945678;28;20047;-83
2021/12/25 12:03:55;;;;;;;2.65;1.00;;;-1.10;99.90;;;;;;4958641;28;20074;-83
2021/12/25 12:06:56;;;;;;;4.63;1.10;;;-1.10;99.90;;;;;;4962192;28;20042;-83
2021/12/25 12:09:32;;;;;;;2.65;1.05;;;-1.10;99.90;;;;;;4929603;28;20395;-83
2021/12/25 12:12:04;;;;;;;4.22;1.27;;;-1.00;99.30;;;;;;4947673;28;20047;-84
2021/12/25 12:14:31;;;;;;;3.90;1.10;;;-0.50;99.90;;;;;;4948578;28;20570;-83
2021/12/25 12:17:19;;;;;;;2.95;1.10;;;-1.10;99.90;;;;;;4942605;28;20047;-84
2021/12/25 12:19:51;;;;;;;3.22;1.00;;;-1.00;99.90;;;;;;4957485;28;20039;-83
2021/12/25 12:22:40;;;;;;;3.65;1.15;;;-1.10;99.90;;;;;;4952616;28;20062;-83
2021/12/25 12:25:31;;;;;;;2.05;0.93;;;-0.80;99.90;;;;;;4962701;28;20051;-85
2021/12/25 12:28:02;;;;;;;4.63;1.17;;;-1.00;99.30;;;;;;4946811;28;20062;-84
2021/12/25 12:30:31;;;;;;;3.30;1.20;;;-1.10;99.90;;;;;;4931296;28;20122;-85
2021/12/25 12:32:58;;;;;;;2.72;1.10;;;-1.10;99.90;;;;;;4956920;28;20117;-85
2021/12/25 12:35:45;;;;;;;3.97;1.25;;;-0.50;98.00;;;;;;4945496;29;20043;-84
2021/12/25 12:38:44;;;;;;;3.78;1.17;;;-1.10;99.90;;;;;;4960776;28;20053;-85
2021/12/25 12:41:27;;;;;;;4.78;1.30;;;-1.10;99.90;;;;;;4953816;28;20513;-84
2021/12/25 12:43:57;;;;;;;4.90;1.20;;;-1.10;99.90;;;;;;4955678;28;20066;-84
2021/12/25 12:46:44;;;;;;;2.63;1.10;;;-1.10;99.90;;;;;;4954290;28;20097;-87
2021/12/25 12:49:09;;;;;;;4.85;1.20;;;-1.10;99.90;;;;;;4970525;28;20053;-85
2021/12/25 12:51:36;;;;;;;3.67;1.10;;;-0.50;99.90;;;;;;4932781;28;20125;-87
2021/12/25 12:54:02;;;;;;;4.30;1.10;;;-0.30;99.90;;;;;;4939260;28;20038;-84
2021/12/25 12:56:29;;;;;;;5.78;1.70;;;-1.10;99.90;;;;;;4948463;28;20447;-88
2021/12/25 12:58:57;;;;;;;5.10;1.20;;;-1.10;99.90;;;;;;4930208;28;20042;-88
2021/12/25 13:01:24;;;;;;;6.10;1.48;;;-1.10;99.90;;;;;;4968815;28;20146;-89
2021/12/25 13:04:02;;;;;;;3.88;1.10;;;-1.10;99.90;;;;;;4949373;28;20074;-89
2021/12/25 13:06:29;;;;;;;5.20;1.20;;;-0.70;99.90;;;;;;4955397;28;20053;-88
2021/12/25 13:09:04;;;;;;;4.88;1.20;;;-0.80;99.90;;;;;;4955498;28;20494;-89
2021/12/25 13:11:38;;;;;;;4.82;1.10;;;-1.10;99.90;;;;;;4946962;28;20046;-89
2021/12/25 13:14:05;;;;;;;4.32;1.00;;;-1.10;99.90;;;;;;4944630;28;20038;-88
2021/12/25 13:16:39;;;;;;;5.72;1.33;;;-1.10;98.90;;;;;;4942996;28;20047;-88
2021/12/25 13:19:06;;;;;;;3.95;1.30;;;-1.20;98.90;;;;;;4970206;28;20089;-88
2021/12/25 13:21:34;;;;;;;3.90;1.20;;;-0.10;99.60;;;;;;4950069;28;20142;-88
2021/12/25 13:24:14;;;;;;;3.40;1.10;;;-0.30;99.90;;;;;;4966557;28;20053;-85
2021/12/25 13:26:49;;;;;;;4.85;1.17;;;-1.10;99.90;;;;;;4976231;28;20557;-86
2021/12/25 13:29:19;;;;;;;4.68;1.30;;;-0.70;97.10;;;;;;4973477;28;20051;-87
2021/12/25 13:31:46;;;;;;;3.65;1.10;;;-0.30;99.70;;;;;;4950030;28;20038;-87
2021/12/25 13:34:18;;;;;;;4.68;0.98;;;-1.10;99.50;;;;;;4972657;28;20031;-86
2021/12/25 13:36:54;;;;;;;2.67;1.07;;;-0.40;97.00;;;;;;4972369;28;20045;-87
2021/12/25 13:39:27;;;;;;;4.63;1.10;;;0.00;97.30;;;;;;4974794;28;20305;-86
2021/12/25 13:41:56;;;;;;;5.55;1.20;;;0.00;96.80;;;;;;4946858;28;20054;-87
2021/12/25 13:44:27;;;;;;;2.78;1.13;;;-1.10;96.30;;;;;;4950865;28;20042;-86
2021/12/25 13:46:52;;;;;;;4.07;1.20;;;-1.30;96.70;;;;;;4977969;28;20050;-88
2021/12/25 13:49:29;;;;;;;3.70;1.10;;;-1.30;98.30;;;;;;4971909;28;20038;-87
2021/12/25 13:51:56;;;;;;;4.38;1.10;;;-0.20;99.40;;;;;;4964609;28;20122;-87
2021/12/25 13:54:23;;;;;;;2.80;1.00;;;-0.30;99.80;;;;;;4947885;23;20043;-80
2021/12/25 13:56:51;;;;;;;3.97;1.20;;;-1.30;99.80;;;;;;4951491;28;20258;-80
2021/12/25 13:59:17;;;;;;;3.53;1.17;;;-1.20;99.20;;;;;;4954836;28;20050;-80
2021/12/25 14:01:43;;;;;;;4.15;1.13;;;-0.30;98.40;;;;;;4940403;28;20075;-80
2021/12/25 14:04:11;;;;;;;5.75;1.30;;;-1.30;98.30;;;;;;4950631;28;20052;-80
2021/12/25 14:06:37;;;;;;;4.80;1.40;;;-1.30;97.10;;;;;;4940512;29;20042;-81
2021/12/25 14:09:05;;;;;;;4.75;1.30;;;-1.30;97.90;;;;;;4929543;29;20090;-81
2021/12/25 14:11:31;;;;;;;5.53;1.30;;;-1.30;98.20;;;;;;4936873;29;20435;-80